sensor_id;sensor_type;location;lat;lon;timestamp;pressure;altitude;pressure_sealevel;temperature;humidity
54600;BME280;40500;51.084;16.958;2023-02-28T00:01:27;101728.90;;;-0.20;100.00
54600;BME280;40500;51.084;16.958;2023-02-28T00:04:30;101728.67;;;-0.18;100.00
54600;BME280;40500;51.084;16.958;2023-02-28T00:07:05;101732.36;;;-0.20;100.00
54600;BME280;40500;51.084;16.958;2023-02-28T00:10:16;101735.21;;;-0.18;100.00
54600;BME280;40500;51.084;16.958;2023-02-28T00:13:23;101736.63;;;-0.17;100.00
54600;BME280;40500;51.084;16.958;2023-02-28T00:16:18;101737.02;;;-0.16;100.00
54600;BME280;40500;51.084;16.958;2023-02-28T00:19:12;101736.52;;;-0.16;100.00
54600;BME280;40500;51.084;16.958;2023-02-28T00:25:24;101730.73;;;-0.17;100.00
54600;BME280;40500;51.084;16.958;2023-02-28T00:28:29;101731.87;;;-0.19;100.00
54600;BME280;40500;51.084;16.958;2023-02-28T00:31:20;101730.19;;;-0.18;100.00
54600;BME280;40500;51.084;16.958;2023-02-28T00:34:26;101729.06;;;-0.17;100.00
54600;BME280;40500;51.084;16.958;2023-02-28T00:37:17;101724.23;;;-0.17;100.00
54600;BME280;40500;51.084;16.958;2023-02-28T00:39:54;101723.30;;;-0.15;100.00
54600;BME280;40500;51.084;16.958;2023-02-28T00:42:27;101725.92;;;-0.14;100.00
54600;BME280;40500;51.084;16.958;2023-02-28T00:44:58;101722.13;;;-0.14;100.00
54600;BME280;40500;51.084;16.958;2023-02-28T00:47:43;101723.69;;;-0.14;100.00
54600;BME280;40500;51.084;16.958;2023-02-28T00:50:40;101723.23;;;-0.13;100.00
54600;BME280;40500;51.084;16.958;2023-02-28T00:53:49;101720.95;;;-0.13;100.00
54600;BME280;40500;51.084;16.958;2023-02-28T00:56:53;101725.80;;;-0.13;100.00
54600;BME280;40500;51.084;16.958;2023-02-28T00:59:45;101720.91;;;-0.14;100.00
54600;BME280;40500;51.084;16.958;2023-02-28T01:02:40;101722.23;;;-0.16;100.00
54600;BME280;40500;51.084;16.958;2023-02-28T01:05:34;101722.98;;;-0.18;100.00
54600;BME280;40500;51.084;16.958;2023-02-28T01:08:27;101721.73;;;-0.19;100.00
54600;BME280;40500;51.084;16.958;2023-02-28T01:11:22;101720.55;;;-0.18;100.00
54600;BME280;40500;51.084;16.958;2023-02-28T01:14:16;101716.14;;;-0.20;100.00
54600;BME280;40500;51.084;16.958;2023-02-28T01:17:17;101720.10;;;-0.21;100.00
54600;BME280;40500;51.084;16.958;2023-02-28T01:20:33;101715.99;;;-0.23;100.00
54600;BME280;40500;51.084;16.958;2023-02-28T01:23:36;101718.20;;;-0.24;100.00
54600;BME280;40500;51.084;16.958;2023-02-28T01:26:31;101715.39;;;-0.25;100.00
54600;BME280;40500;51.084;16.958;2023-02-28T01:29:17;101716.13;;;-0.28;100.00
54600;BME280;40500;51.084;16.958;2023-02-28T01:31:56;101713.14;;;-0.29;100.00
54600;BME280;40500;51.084;16.958;2023-02-28T01:34:37;101710.95;;;-0.32;100.00
54600;BME280;40500;51.084;16.958;2023-02-28T01:37:40;101718.62;;;-0.33;100.00
54600;BME280;40500;51.084;16.958;2023-02-28T01:40:33;101721.48;;;-0.38;100.00
54600;BME280;40500;51.084;16.958;2023-02-28T01:43:12;101718.13;;;-0.44;100.00
54600;BME280;40500;51.084;16.958;2023-02-28T01:46:15;101715.95;;;-0.46;100.00
54600;BME280;40500;51.084;16.958;2023-02-28T01:49:17;101714.75;;;-0.42;100.00
54600;BME280;40500;51.084;16.958;2023-02-28T01:52:11;101717.83;;;-0.38;100.00
54600;BME280;40500;51.084;16.958;2023-02-28T01:55:14;101714.64;;;-0.37;100.00
54600;BME280;40500;51.084;16.958;2023-02-28T01:58:02;101714.70;;;-0.35;100.00
54600;BME280;40500;51.084;16.958;2023-02-28T02:01:03;101713.73;;;-0.34;100.00
54600;BME280;40500;51.084;16.958;2023-02-28T02:03:56;101714.24;;;-0.34;100.00
54600;BME280;40500;51.084;16.958;2023-02-28T02:06:52;101713.77;;;-0.33;100.00
54600;BME280;40500;51.084;16.958;2023-02-28T02:09:49;101722.67;;;-0.34;100.00
54600;BME280;40500;51.084;16.958;2023-02-28T02:12:32;101718.05;;;-0.37;100.00
54600;BME280;40500;51.084;16.958;2023-02-28T02:15:46;101715.59;;;-0.39;100.00
54600;BME280;40500;51.084;16.958;2023-02-28T02:18:44;101718.20;;;-0.38;100.00
54600;BME280;40500;51.084;16.958;2023-02-28T02:21:28;101711.95;;;-0.39;100.00
54600;BME280;40500;51.084;16.958;2023-02-28T02:31:00;101701.16;;;-0.38;100.00
54600;BME280;40500;51.084;16.958;2023-02-28T02:34:08;101698.73;;;-0.39;100.00
54600;BME280;40500;51.084;16.958;2023-02-28T02:36:51;101700.64;;;-0.38;100.00
54600;BME280;40500;51.084;16.958;2023-02-28T02:39:52;101708.14;;;-0.43;100.00
54600;BME280;40500;51.084;16.958;2023-02-28T02:42:47;101703.92;;;-0.48;100.00
54600;BME280;40500;51.084;16.958;2023-02-28T02:45:46;101706.55;;;-0.51;100.00
54600;BME280;40500;51.084;16.958;2023-02-28T02:48:46;101704.65;;;-0.55;100.00
54600;BME280;40500;51.084;16.958;2023-02-28T02:51:42;101709.09;;;-0.52;100.00
54600;BME280;40500;51.084;16.958;2023-02-28T02:54:40;101705.52;;;-0.51;100.00
54600;BME280;40500;51.084;16.958;2023-02-28T02:57:17;101699.01;;;-0.51;100.00
54600;BME280;40500;51.084;16.958;2023-02-28T02:59:55;101699.16;;;-0.51;100.00
54600;BME280;40500;51.084;16.958;2023-02-28T03:02:50;101702.29;;;-0.50;100.00
54600;BME280;40500;51.084;16.958;2023-02-28T03:08:38;101707.64;;;-0.53;100.00
54600;BME280;40500;51.084;16.958;2023-02-28T03:11:37;101708.34;;;-0.60;100.00
54600;BME280;40500;51.084;16.958;2023-02-28T03:14:48;101705.86;;;-0.65;100.00
54600;BME280;40500;51.084;16.958;2023-02-28T03:17:50;101707.80;;;-0.67;100.00
54600;BME280;40500;51.084;16.958;2023-02-28T03:20:52;101711.52;;;-0.75;100.00
54600;BME280;40500;51.084;16.958;2023-02-28T03:23:32;101711.52;;;-0.79;100.00
54600;BME280;40500;51.084;16.958;2023-02-28T03:26:27;101714.04;;;-0.76;100.00
54600;BME280;40500;51.084;16.958;2023-02-28T03:29:08;101718.52;;;-0.76;100.00
54600;BME280;40500;51.084;16.958;2023-02-28T03:32:11;101717.40;;;-0.78;100.00
54600;BME280;40500;51.084;16.958;2023-02-28T03:35:14;101722.09;;;-0.77;100.00
54600;BME280;40500;51.084;16.958;2023-02-28T03:37:59;101723.09;;;-0.78;100.00
54600;BME280;40500;51.084;16.958;2023-02-28T03:40:33;101720.96;;;-0.75;100.00
54600;BME280;40500;51.084;16.958;2023-02-28T03:43:26;101721.45;;;-0.76;100.00
54600;BME280;40500;51.084;16.958;2023-02-28T03:45:59;101722.78;;;-0.77;100.00
54600;BME280;40500;51.084;16.958;2023-02-28T03:48:40;101729.14;;;-0.77;100.00
54600;BME280;40500;51.084;16.958;2023-02-28T03:51:34;101725.91;;;-0.77;100.00
54600;BME280;40500;51.084;16.958;2023-02-28T03:54:27;101730.39;;;-0.76;100.00
54600;BME280;40500;51.084;16.958;2023-02-28T03:57:02;101730.45;;;-0.78;100.00
54600;BME280;40500;51.084;16.958;2023-02-28T03:59:42;101734.38;;;-0.82;100.00
54600;BME280;40500;51.084;16.958;2023-02-28T04:02:22;101736.29;;;-0.82;100.00
54600;BME280;40500;51.084;16.958;2023-02-28T04:05:18;101733.33;;;-0.83;100.00
54600;BME280;40500;51.084;16.958;2023-02-28T04:08:14;101733.44;;;-0.81;100.00
54600;BME280;40500;51.084;16.958;2023-02-28T04:11:22;101738.12;;;-0.80;100.00
54600;BME280;40500;51.084;16.958;2023-02-28T04:14:23;101735.23;;;-0.79;100.00
54600;BME280;40500;51.084;16.958;2023-02-28T04:17:20;101737.48;;;-0.75;100.00
54600;BME280;40500;51.084;16.958;2023-02-28T04:20:13;101741.76;;;-0.72;100.00
54600;BME280;40500;51.084;16.958;2023-02-28T04:23:05;101741.37;;;-0.70;100.00
54600;BME280;40500;51.084;16.958;2023-02-28T04:25:57;101741.88;;;-0.70;100.00
54600;BME280;40500;51.084;16.958;2023-02-28T04:28:40;101747.02;;;-0.67;100.00
54600;BME280;40500;51.084;16.958;2023-02-28T04:31:32;101746.77;;;-0.65;100.00
54600;BME280;40500;51.084;16.958;2023-02-28T04:34:35;101752.31;;;-0.65;100.00
54600;BME280;40500;51.084;16.958;2023-02-28T04:37:07;101747.54;;;-0.64;100.00
54600;BME280;40500;51.084;16.958;2023-02-28T04:40:05;101751.70;;;-0.60;100.00
54600;BME280;40500;51.084;16.958;2023-02-28T04:43:00;101744.42;;;-0.61;100.00
54600;BME280;40500;51.084;16.958;2023-02-28T04:45:32;101751.50;;;-0.57;100.00
54600;BME280;40500;51.084;16.958;2023-02-28T04:48:09;101748.60;;;-0.56;100.00
54600;BME280;40500;51.084;16.958;2023-02-28T04:50:44;101751.92;;;-0.55;100.00
54600;BME280;40500;51.084;16.958;2023-02-28T04:53:20;101751.36;;;-0.56;100.00
54600;BME280;40500;51.084;16.958;2023-02-28T04:55:52;101749.16;;;-0.55;100.00
54600;BME280;40500;51.084;16.958;2023-02-28T04:58:31;101750.29;;;-0.54;100.00
54600;BME280;40500;51.084;16.958;2023-02-28T05:01:27;101756.80;;;-0.51;100.00
54600;BME280;40500;51.084;16.958;2023-02-28T05:04:20;101759.11;;;-0.49;100.00
54600;BME280;40500;51.084;16.958;2023-02-28T05:07:15;101763.23;;;-0.50;100.00
54600;BME280;40500;51.084;16.958;2023-02-28T05:10:08;101759.64;;;-0.53;100.00
54600;BME280;40500;51.084;16.958;2023-02-28T05:13:10;101754.25;;;-0.57;100.00
54600;BME280;40500;51.084;16.958;2023-02-28T05:15:44;101760.52;;;-0.59;100.00
54600;BME280;40500;51.084;16.958;2023-02-28T05:18:22;101764.27;;;-0.60;100.00
54600;BME280;40500;51.084;16.958;2023-02-28T05:21:02;101762.00;;;-0.60;100.00
54600;BME280;40500;51.084;16.958;2023-02-28T05:23:37;101767.13;;;-0.61;100.00
54600;BME280;40500;51.084;16.958;2023-02-28T05:26:26;101763.52;;;-0.61;100.00
54600;BME280;40500;51.084;16.958;2023-02-28T05:29:20;101762.48;;;-0.61;100.00
54600;BME280;40500;51.084;16.958;2023-02-28T05:31:55;101764.82;;;-0.62;100.00
54600;BME280;40500;51.084;16.958;2023-02-28T05:34:42;101761.56;;;-0.62;100.00
54600;BME280;40500;51.084;16.958;2023-02-28T05:37:21;101769.04;;;-0.64;100.00
54600;BME280;40500;51.084;16.958;2023-02-28T05:39:57;101773.79;;;-0.65;100.00
54600;BME280;40500;51.084;16.958;2023-02-28T05:42:32;101775.19;;;-0.68;100.00
54600;BME280;40500;51.084;16.958;2023-02-28T05:45:06;101776.27;;;-0.74;100.00
54600;BME280;40500;51.084;16.958;2023-02-28T05:47:47;101778.83;;;-0.77;100.00
54600;BME280;40500;51.084;16.958;2023-02-28T05:53:39;101786.25;;;-0.81;100.00
54600;BME280;40500;51.084;16.958;2023-02-28T05:56:38;101787.38;;;-0.78;100.00
54600;BME280;40500;51.084;16.958;2023-02-28T05:59:27;101788.14;;;-0.77;100.00
54600;BME280;40500;51.084;16.958;2023-02-28T06:02:23;101793.55;;;-0.78;100.00
54600;BME280;40500;51.084;16.958;2023-02-28T06:05:22;101794.67;;;-0.77;100.00
54600;BME280;40500;51.084;16.958;2023-02-28T06:08:16;101796.67;;;-0.75;100.00
54600;BME280;40500;51.084;16.958;2023-02-28T06:11:08;101798.06;;;-0.71;100.00
54600;BME280;40500;51.084;16.958;2023-02-28T06:14:02;101804.61;;;-0.68;100.00
54600;BME280;40500;51.084;16.958;2023-02-28T06:16:55;101805.33;;;-0.64;100.00
54600;BME280;40500;51.084;16.958;2023-02-28T06:19:53;101806.39;;;-0.60;100.00
54600;BME280;40500;51.084;16.958;2023-02-28T06:22:48;101810.36;;;-0.56;100.00
54600;BME280;40500;51.084;16.958;2023-02-28T06:25:45;101809.09;;;-0.58;100.00
54600;BME280;40500;51.084;16.958;2023-02-28T06:28:40;101813.20;;;-0.55;100.00
54600;BME280;40500;51.084;16.958;2023-02-28T06:31:35;101818.57;;;-0.51;100.00
54600;BME280;40500;51.084;16.958;2023-02-28T06:34:34;101817.38;;;-0.48;100.00
54600;BME280;40500;51.084;16.958;2023-02-28T06:37:34;101821.89;;;-0.43;100.00
54600;BME280;40500;51.084;16.958;2023-02-28T06:40:32;101824.17;;;-0.35;100.00
54600;BME280;40500;51.084;16.958;2023-02-28T06:43:37;101831.51;;;-0.27;100.00
54600;BME280;40500;51.084;16.958;2023-02-28T06:46:33;101832.06;;;-0.19;100.00
54600;BME280;40500;51.084;16.958;2023-02-28T06:49:38;101833.21;;;-0.13;100.00
54600;BME280;40500;51.084;16.958;2023-02-28T06:52:43;101834.36;;;-0.08;100.00
54600;BME280;40500;51.084;16.958;2023-02-28T06:55:38;101835.92;;;-0.08;100.00
54600;BME280;40500;51.084;16.958;2023-02-28T06:58:31;101837.50;;;-0.07;100.00
54600;BME280;40500;51.084;16.958;2023-02-28T07:01:22;101835.15;;;-0.06;100.00
54600;BME280;40500;51.084;16.958;2023-02-28T07:04:20;101840.45;;;-0.03;100.00
54600;BME280;40500;51.084;16.958;2023-02-28T07:07:25;101836.25;;;-0.01;100.00
54600;BME280;40500;51.084;16.958;2023-02-28T07:10:23;101838.15;;;0.02;100.00
54600;BME280;40500;51.084;16.958;2023-02-28T07:13:14;101838.21;;;0.08;100.00
54600;BME280;40500;51.084;16.958;2023-02-28T07:16:14;101838.17;;;0.13;100.00
54600;BME280;40500;51.084;16.958;2023-02-28T07:19:22;101837.27;;;0.20;100.00
54600;BME280;40500;51.084;16.958;2023-02-28T07:21:54;101839.80;;;0.25;100.00
54600;BME280;40500;51.084;16.958;2023-02-28T07:24:51;101839.23;;;0.32;100.00
54600;BME280;40500;51.084;16.958;2023-02-28T07:27:47;101840.70;;;0.48;100.00
54600;BME280;40500;51.084;16.958;2023-02-28T07:30:25;101835.98;;;1.01;100.00
54600;BME280;40500;51.084;16.958;2023-02-28T07:32:55;101840.00;;;1.17;100.00
54600;BME280;40500;51.084;16.958;2023-02-28T07:35:24;101836.34;;;1.32;100.00
54600;BME280;40500;51.084;16.958;2023-02-28T07:38:04;101840.73;;;1.42;100.00
54600;BME280;40500;51.084;16.958;2023-02-28T07:40:38;101836.60;;;1.34;100.00
54600;BME280;40500;51.084;16.958;2023-02-28T07:43:07;101837.29;;;1.30;100.00
54600;BME280;40500;51.084;16.958;2023-02-28T07:45:38;101839.84;;;1.25;100.00
54600;BME280;40500;51.084;16.958;2023-02-28T07:48:09;101844.77;;;1.24;100.00
54600;BME280;40500;51.084;16.958;2023-02-28T07:50:40;101841.83;;;1.24;100.00
54600;BME280;40500;51.084;16.958;2023-02-28T07:53:09;101842.98;;;1.22;100.00
54600;BME280;40500;51.084;16.958;2023-02-28T07:55:40;101843.08;;;1.29;100.00
54600;BME280;40500;51.084;16.958;2023-02-28T07:58:10;101845.92;;;1.38;100.00
54600;BME280;40500;51.084;16.958;2023-02-28T08:00:39;101842.49;;;1.46;100.00
54600;BME280;40500;51.084;16.958;2023-02-28T08:03:09;101838.27;;;1.52;100.00
54600;BME280;40500;51.084;16.958;2023-02-28T08:05:40;101837.58;;;1.56;100.00
54600;BME280;40500;51.084;16.958;2023-02-28T08:08:12;101839.10;;;1.55;100.00
54600;BME280;40500;51.084;16.958;2023-02-28T08:10:42;101840.91;;;1.57;100.00
54600;BME280;40500;51.084;16.958;2023-02-28T08:13:14;101841.98;;;1.58;100.00
54600;BME280;40500;51.084;16.958;2023-02-28T08:15:43;101840.05;;;1.62;100.00
54600;BME280;40500;51.084;16.958;2023-02-28T08:18:12;101840.27;;;1.67;100.00
54600;BME280;40500;51.084;16.958;2023-02-28T08:20:44;101833.65;;;1.69;100.00
54600;BME280;40500;51.084;16.958;2023-02-28T08:23:13;101837.04;;;1.76;100.00
54600;BME280;40500;51.084;16.958;2023-02-28T08:25:44;101837.98;;;1.86;100.00
54600;BME280;40500;51.084;16.958;2023-02-28T08:28:13;101838.02;;;1.94;100.00
54600;BME280;40500;51.084;16.958;2023-02-28T08:30:44;101830.16;;;2.01;100.00
54600;BME280;40500;51.084;16.958;2023-02-28T08:33:13;101833.00;;;2.03;100.00
54600;BME280;40500;51.084;16.958;2023-02-28T08:35:50;101832.05;;;2.01;100.00
54600;BME280;40500;51.084;16.958;2023-02-28T08:38:21;101827.16;;;2.04;100.00
54600;BME280;40500;51.084;16.958;2023-02-28T08:40:58;101833.53;;;2.11;100.00
54600;BME280;40500;51.084;16.958;2023-02-28T08:43:28;101836.02;;;2.17;100.00
54600;BME280;40500;51.084;16.958;2023-02-28T08:45:57;101837.95;;;2.22;100.00
54600;BME280;40500;51.084;16.958;2023-02-28T08:48:29;101838.70;;;2.28;100.00
54600;BME280;40500;51.084;16.958;2023-02-28T08:50:59;101834.37;;;2.32;100.00
54600;BME280;40500;51.084;16.958;2023-02-28T08:53:35;101831.31;;;2.37;100.00
54600;BME280;40500;51.084;16.958;2023-02-28T08:56:06;101833.00;;;2.41;100.00
54600;BME280;40500;51.084;16.958;2023-02-28T08:58:35;101836.05;;;2.44;100.00
54600;BME280;40500;51.084;16.958;2023-02-28T09:01:11;101835.23;;;2.49;100.00
54600;BME280;40500;51.084;16.958;2023-02-28T09:03:42;101833.27;;;2.56;100.00
54600;BME280;40500;51.084;16.958;2023-02-28T09:06:11;101829.99;;;2.56;100.00
54600;BME280;40500;51.084;16.958;2023-02-28T09:08:42;101832.18;;;2.64;100.00
54600;BME280;40500;51.084;16.958;2023-02-28T09:11:11;101831.23;;;2.70;100.00
54600;BME280;40500;51.084;16.958;2023-02-28T09:13:40;101833.16;;;2.75;100.00
54600;BME280;40500;51.084;16.958;2023-02-28T09:16:11;101832.23;;;2.83;100.00
54600;BME280;40500;51.084;16.958;2023-02-28T09:18:40;101831.30;;;2.85;100.00
54600;BME280;40500;51.084;16.958;2023-02-28T09:21:09;101829.02;;;2.89;100.00
54600;BME280;40500;51.084;16.958;2023-02-28T09:23:41;101826.90;;;2.92;100.00
54600;BME280;40500;51.084;16.958;2023-02-28T09:26:14;101821.29;;;2.91;100.00
54600;BME280;40500;51.084;16.958;2023-02-28T09:28:44;101822.23;;;2.93;100.00
54600;BME280;40500;51.084;16.958;2023-02-28T09:31:13;101820.19;;;2.98;100.00
54600;BME280;40500;51.084;16.958;2023-02-28T09:33:42;101819.61;;;3.01;100.00
54600;BME280;40500;51.084;16.958;2023-02-28T09:36:11;101817.02;;;3.06;100.00
54600;BME280;40500;51.084;16.958;2023-02-28T09:38:40;101814.11;;;3.11;100.00
54600;BME280;40500;51.084;16.958;2023-02-28T09:41:14;101812.52;;;3.10;100.00
54600;BME280;40500;51.084;16.958;2023-02-28T09:43:45;101810.08;;;3.10;100.00
54600;BME280;40500;51.084;16.958;2023-02-28T09:46:18;101807.17;;;3.07;100.00
54600;BME280;40500;51.084;16.958;2023-02-28T09:48:54;101808.41;;;3.07;100.00
54600;BME280;40500;51.084;16.958;2023-02-28T09:51:30;101810.20;;;2.99;100.00
54600;BME280;40500;51.084;16.958;2023-02-28T09:54:02;101808.16;;;2.96;100.00
54600;BME280;40500;51.084;16.958;2023-02-28T09:56:33;101804.00;;;2.91;100.00
54600;BME280;40500;51.084;16.958;2023-02-28T09:59:05;101809.95;;;2.89;100.00
54600;BME280;40500;51.084;16.958;2023-02-28T10:01:41;101808.90;;;2.88;100.00
54600;BME280;40500;51.084;16.958;2023-02-28T10:04:15;101808.88;;;2.87;100.00
54600;BME280;40500;51.084;16.958;2023-02-28T10:06:46;101808.48;;;2.86;100.00
54600;BME280;40500;51.084;16.958;2023-02-28T10:09:18;101810.48;;;2.88;100.00
54600;BME280;40500;51.084;16.958;2023-02-28T10:11:52;101814.63;;;2.88;100.00
54600;BME280;40500;51.084;16.958;2023-02-28T10:14:24;101813.45;;;2.90;100.00
54600;BME280;40500;51.084;16.958;2023-02-28T10:16:55;101811.73;;;2.90;100.00
54600;BME280;40500;51.084;16.958;2023-02-28T10:19:26;101815.77;;;2.91;100.00
54600;BME280;40500;51.084;16.958;2023-02-28T10:22:00;101818.54;;;2.91;100.00
54600;BME280;40500;51.084;16.958;2023-02-28T10:24:30;101819.04;;;2.91;100.00
54600;BME280;40500;51.084;16.958;2023-02-28T10:27:06;101815.35;;;2.89;100.00
54600;BME280;40500;51.084;16.958;2023-02-28T10:29:40;101818.84;;;2.90;100.00
54600;BME280;40500;51.084;16.958;2023-02-28T10:32:15;101813.24;;;2.88;100.00
54600;BME280;40500;51.084;16.958;2023-02-28T10:34:45;101815.92;;;2.86;100.00
54600;BME280;40500;51.084;16.958;2023-02-28T10:37:19;101810.31;;;2.88;100.00
54600;BME280;40500;51.084;16.958;2023-02-28T10:39:48;101809.20;;;2.91;100.00
54600;BME280;40500;51.084;16.958;2023-02-28T10:42:23;101805.77;;;2.92;100.00
54600;BME280;40500;51.084;16.958;2023-02-28T10:45:09;101799.59;;;2.94;100.00
54600;BME280;40500;51.084;16.958;2023-02-28T10:47:40;101802.21;;;2.94;100.00
54600;BME280;40500;51.084;16.958;2023-02-28T10:50:31;101802.90;;;2.94;100.00
54600;BME280;40500;51.084;16.958;2023-02-28T10:53:21;101803.85;;;2.96;100.00
54600;BME280;40500;51.084;16.958;2023-02-28T10:55:57;101802.70;;;2.98;100.00
54600;BME280;40500;51.084;16.958;2023-02-28T10:58:27;101795.80;;;2.98;100.00
54600;BME280;40500;51.084;16.958;2023-02-28T11:00:56;101794.07;;;2.98;100.00
54600;BME280;40500;51.084;16.958;2023-02-28T11:03:29;101795.48;;;2.99;100.00
54600;BME280;40500;51.084;16.958;2023-02-28T11:05:58;101792.75;;;3.00;100.00
54600;BME280;40500;51.084;16.958;2023-02-28T11:08:37;101789.45;;;2.99;100.00
54600;BME280;40500;51.084;16.958;2023-02-28T11:11:13;101788.58;;;3.04;100.00
54600;BME280;40500;51.084;16.958;2023-02-28T11:13:42;101785.05;;;3.07;100.00
54600;BME280;40500;51.084;16.958;2023-02-28T11:16:12;101779.17;;;3.12;100.00
54600;BME280;40500;51.084;16.958;2023-02-28T11:18:43;101783.34;;;3.12;100.00
54600;BME280;40500;51.084;16.958;2023-02-28T11:21:16;101783.92;;;3.14;100.00
54600;BME280;40500;51.084;16.958;2023-02-28T11:23:46;101782.17;;;3.19;100.00
54600;BME280;40500;51.084;16.958;2023-02-28T11:26:17;101778.42;;;3.25;100.00
54600;BME280;40500;51.084;16.958;2023-02-28T11:29:17;101774.05;;;3.33;100.00
54600;BME280;40500;51.084;16.958;2023-02-28T11:32:04;101770.77;;;3.39;100.00
54600;BME280;40500;51.084;16.958;2023-02-28T11:34:34;101771.72;;;3.46;100.00
54600;BME280;40500;51.084;16.958;2023-02-28T11:37:08;101769.26;;;3.54;100.00
54600;BME280;40500;51.084;16.958;2023-02-28T11:39:39;101770.39;;;3.62;100.00
54600;BME280;40500;51.084;16.958;2023-02-28T11:47:56;101763.81;;;3.83;100.00
54600;BME280;40500;51.084;16.958;2023-02-28T11:50:39;101764.05;;;3.85;100.00
54600;BME280;40500;51.084;16.958;2023-02-28T11:53:17;101763.39;;;3.85;100.00
54600;BME280;40500;51.084;16.958;2023-02-28T11:55:48;101762.41;;;3.88;100.00
54600;BME280;40500;51.084;16.958;2023-02-28T11:58:39;101758.85;;;3.95;100.00
54600;BME280;40500;51.084;16.958;2023-02-28T12:01:21;101753.75;;;4.04;100.00
54600;BME280;40500;51.084;16.958;2023-02-28T12:04:01;101750.36;;;4.11;100.00
54600;BME280;40500;51.084;16.958;2023-02-28T12:06:36;101746.39;;;4.18;100.00
54600;BME280;40500;51.084;16.958;2023-02-28T12:09:15;101734.39;;;4.27;100.00
54600;BME280;40500;51.084;16.958;2023-02-28T12:11:51;101736.45;;;4.44;100.00
54600;BME280;40500;51.084;16.958;2023-02-28T12:14:25;101733.55;;;4.62;100.00
54600;BME280;40500;51.084;16.958;2023-02-28T12:17:02;101729.61;;;4.76;100.00
54600;BME280;40500;51.084;16.958;2023-02-28T12:19:36;101729.80;;;4.82;100.00
54600;BME280;40500;51.084;16.958;2023-02-28T12:22:15;101727.15;;;4.87;100.00
54600;BME280;40500;51.084;16.958;2023-02-28T12:25:04;101726.73;;;4.97;100.00
54600;BME280;40500;51.084;16.958;2023-02-28T12:27:43;101726.88;;;5.02;100.00
54600;BME280;40500;51.084;16.958;2023-02-28T12:30:15;101723.65;;;5.04;100.00
54600;BME280;40500;51.084;16.958;2023-02-28T12:32:46;101720.85;;;5.16;100.00
54600;BME280;40500;51.084;16.958;2023-02-28T12:35:17;101717.41;;;5.31;100.00
54600;BME280;40500;51.084;16.958;2023-02-28T12:37:49;101714.46;;;5.50;100.00
54600;BME280;40500;51.084;16.958;2023-02-28T12:40:22;101701.89;;;5.69;100.00
54600;BME280;40500;51.084;16.958;2023-02-28T12:42:53;101700.79;;;5.87;100.00
54600;BME280;40500;51.084;16.958;2023-02-28T12:45:25;101702.29;;;6.05;100.00
54600;BME280;40500;51.084;16.958;2023-02-28T12:48:02;101699.54;;;6.29;100.00
54600;BME280;40500;51.084;16.958;2023-02-28T12:50:32;101695.88;;;6.86;100.00
54600;BME280;40500;51.084;16.958;2023-02-28T12:53:05;101689.98;;;8.32;100.00
54600;BME280;40500;51.084;16.958;2023-02-28T12:55:38;101680.50;;;9.92;100.00
54600;BME280;40500;51.084;16.958;2023-02-28T12:58:10;101680.64;;;11.20;100.00
54600;BME280;40500;51.084;16.958;2023-02-28T13:00:46;101675.95;;;12.10;97.36
54600;BME280;40500;51.084;16.958;2023-02-28T13:03:21;101671.90;;;13.05;99.17
54600;BME280;40500;51.084;16.958;2023-02-28T13:06:11;101671.99;;;13.93;92.00
54600;BME280;40500;51.084;16.958;2023-02-28T13:08:52;101673.95;;;14.07;85.65
54600;BME280;40500;51.084;16.958;2023-02-28T13:11:29;101672.54;;;13.42;81.97
54600;BME280;40500;51.084;16.958;2023-02-28T13:14:01;101675.84;;;12.96;83.92
54600;BME280;40500;51.084;16.958;2023-02-28T13:19:17;101676.52;;;13.29;88.11
54600;BME280;40500;51.084;16.958;2023-02-28T13:21:47;101682.24;;;14.23;88.67
54600;BME280;40500;51.084;16.958;2023-02-28T13:27:20;101672.36;;;15.81;88.46
54600;BME280;40500;51.084;16.958;2023-02-28T13:29:52;101666.28;;;16.50;85.10
54600;BME280;40500;51.084;16.958;2023-02-28T13:35:13;101665.70;;;17.20;80.88
54600;BME280;40500;51.084;16.958;2023-02-28T13:37:43;101666.77;;;17.12;74.79
54600;BME280;40500;51.084;16.958;2023-02-28T13:40:30;101668.05;;;17.55;77.50
54600;BME280;40500;51.084;16.958;2023-02-28T13:43:06;101665.13;;;18.40;77.39
54600;BME280;40500;51.084;16.958;2023-02-28T13:45:36;101658.25;;;18.70;73.51
54600;BME280;40500;51.084;16.958;2023-02-28T13:48:16;101654.17;;;19.16;75.49
54600;BME280;40500;51.084;16.958;2023-02-28T13:50:46;101647.83;;;19.59;74.07
54600;BME280;40500;51.084;16.958;2023-02-28T13:53:37;101646.61;;;19.47;71.01
54600;BME280;40500;51.084;16.958;2023-02-28T13:56:17;101644.52;;;19.02;68.91
54600;BME280;40500;51.084;16.958;2023-02-28T13:58:51;101642.39;;;18.90;66.73
54600;BME280;40500;51.084;16.958;2023-02-28T14:01:31;101641.23;;;18.63;66.94
54600;BME280;40500;51.084;16.958;2023-02-28T14:04:12;101641.45;;;18.49;67.40
54600;BME280;40500;51.084;16.958;2023-02-28T14:06:47;101634.25;;;18.53;65.24
54600;BME280;40500;51.084;16.958;2023-02-28T14:09:19;101637.05;;;18.30;65.39
54600;BME280;40500;51.084;16.958;2023-02-28T14:11:50;101629.05;;;18.48;67.07
54600;BME280;40500;51.084;16.958;2023-02-28T14:17:06;101625.92;;;19.33;63.97
54600;BME280;40500;51.084;16.958;2023-02-28T14:19:37;101622.30;;;19.62;65.00
54600;BME280;40500;51.084;16.958;2023-02-28T14:22:10;101621.44;;;19.12;63.87
54600;BME280;40500;51.084;16.958;2023-02-28T14:24:51;101626.80;;;17.15;66.13
54600;BME280;40500;51.084;16.958;2023-02-28T14:27:29;101627.11;;;15.03;68.06